Portada
METAR-TAF:

METAR-TAF

Aeropuertos :

Palmer, Alaska, Estados Unidos

latitud: 61-36N, longitud: 149-05W, altitud: 74 m

Observación

El informe se hizo hace 1 hora y 0 minutos, a las 02:53 UTC
Viento 8 kt del sur-suroeste
Temperatura 22°C
Humedad 53%
Presión 1025 hPa
Visibilidad: 11.3 km
Cielo despejado
humo

METAR: PAAQ 250253Z AUTO 20008KT 7SM FU CLR 22/12 A3028 RMK AO2 SLP255 T02220117 56001 TSNO

Hora: 19:53 (03:53 UTC)

Pronóstico

El informe se hizo hace 4 horas y 12 minutos, a las 23:41 UTC
Pronóstico válido del 25 a las 00 UTC al 25 a las 24 UTC
Viento 8 kt del suroeste
Visibilidad: 9.7 km
Escasas nubes a una altura de 8000 ft
humo
A partir de las 25 a las 0900 UTC
Viento 3 kt con dirección variable
Visibilidad: 8.0 km
Cielo despejado
humo
A partir de las 25 a las 1900 UTC
Viento 7 kt del suroeste
Visibilidad: 10 km
Cielo despejado

TAF: PAAQ 242341Z 2500/2524 22008KT 6SM FU FEW080 FM250900 VRB03KT 5SM FU SKC FM251900 22007KT P6SM SKC

Observaciones y pronósticos meteorológicos de más de 4000 aeropuertos (mensajes METAR y TAF).

Los puntos amarillos y rojos representan las estaciones disponibles.

Ponga el ratón en el punto deseado para ver el nombre de la estación.

Haga clic para ver las observaciones y los pronósticos meteorológicos.

Para cambiar el mapa : haga clic en los botones verdes con una cruz de color negro para hacer un zoom, en el botón verde con un guión para alejar o en las flechas verdes para mapas adyacentes.


METAR-TAF: